Time;durP1;ratioP1;P1;durP2;ratioP2;P2;SDS_P1;SDS_P2;PMS_P1;PMS_P2;Temp;Humidity;BMP_temperature;BMP_pressure;BME280_temperature;BME280_humidity;BME280_pressure;Samples;Min_cycle;Max_cycle;Signal;HPM_P1;HPM_P2
2022/05/09 00:03:01;;;;;;;;;;;11.20;99.90;;;;;;10270652;28;84368;-56
2022/05/09 00:08:02;;;;;;;;;;;11.00;99.90;;;;;;10288596;28;84227;-58
2022/05/09 00:13:02;;;;;;;;;;;11.00;99.90;;;;;;10271895;28;84129;-56
2022/05/09 00:18:03;;;;;;;;;;;10.90;99.90;;;;;;10269099;28;86025;-55
2022/05/09 00:23:04;;;;;;;;;;;10.90;99.90;;;;;;10289717;28;84632;-55
2022/05/09 00:28:04;;;;;;;;;;;10.90;99.90;;;;;;10254500;28;84946;-57
2022/05/09 00:33:05;;;;;;;;;;;10.80;1.00;;;;;;10286980;28;84884;-55
2022/05/09 00:38:07;;;;;;;;;;;10.80;1.00;;;;;;10287465;28;84177;-58
2022/05/09 00:43:31;;;;;;;;;;;10.70;1.00;;;;;;10287166;28;84135;-58
2022/05/09 00:48:32;;;;;;;;;;;10.60;1.00;;;;;;10273860;28;84206;-57
2022/05/09 00:53:34;;;;;;;;;;;10.50;1.00;;;;;;10268048;28;85000;-53
2022/05/09 00:58:45;;;;;;;;;;;10.50;1.00;;;;;;10269383;28;86162;-57
2022/05/09 01:03:50;;;;;;;;;;;10.50;1.00;;;;;;10287097;28;84940;-56
2022/05/09 01:08:51;;;;;;;;;;;10.40;1.00;;;;;;10259205;28;86630;-56
2022/05/09 01:13:53;;;;;;;;;;;10.40;1.00;;;;;;10246098;28;90967;-55
2022/05/09 01:18:56;;;;;;;;;;;10.40;1.00;;;;;;10253894;28;85703;-57
2022/05/09 01:23:57;;;;;;;;;;;10.30;1.00;;;;;;10268827;28;84164;-56
2022/05/09 01:29:00;;;;;;;;;;;10.20;1.00;;;;;;10285844;28;84055;-55
2022/05/09 01:34:01;;;;;;;;;;;10.30;1.00;;;;;;10266190;28;84373;-55
2022/05/09 01:39:06;;;;;;;;;;;10.20;1.00;;;;;;10247244;28;84609;-55
2022/05/09 01:44:07;;;;;;;;;;;10.10;1.00;;;;;;10246464;28;85236;-54
2022/05/09 01:54:28;;;;;;;;;;;10.00;1.00;;;;;;10285337;28;84962;-55
2022/05/09 01:59:29;;;;;;;;;;;9.90;1.00;;;;;;10290117;28;84167;-56
2022/05/09 02:04:30;;;;;;;;;;;9.80;1.00;;;;;;10291458;28;84697;-54
2022/05/09 02:09:30;;;;;;;;;;;9.80;1.00;;;;;;10275296;28;86756;-53
2022/05/09 02:14:31;;;;;;;;;;;9.80;1.00;;;;;;10273508;28;86653;-57
2022/05/09 02:19:31;;;;;;;;;;;9.70;1.00;;;;;;10273577;28;84725;-58
2022/05/09 02:24:32;;;;;;;;;;;9.70;1.00;;;;;;10295205;28;84107;-56
2022/05/09 02:29:33;;;;;;;;;;;9.60;1.00;;;;;;10292253;28;86813;-50
2022/05/09 02:34:33;;;;;;;;;;;9.60;1.00;;;;;;10292288;28;85078;-56
2022/05/09 02:39:34;;;;;;;;;;;9.60;1.00;;;;;;10222324;28;85048;-58
2022/05/09 02:44:35;;;;;;;;;;;9.50;1.00;;;;;;10253612;28;84004;-54
2022/05/09 02:49:35;;;;;;;;;;;9.60;1.00;;;;;;10262636;28;84005;-55
2022/05/09 02:54:36;;;;;;;;;;;9.50;1.00;;;;;;10244648;28;84172;-55
2022/05/09 02:59:37;;;;;;;;;;;9.40;1.00;;;;;;10218214;28;87113;-57
2022/05/09 03:04:41;;;;;;;;;;;9.40;1.00;;;;;;10273584;28;84110;-55
2022/05/09 03:09:43;;;;;;;;;;;9.30;1.00;;;;;;10270312;28;84219;-55
2022/05/09 03:14:44;;;;;;;;;;;9.30;1.00;;;;;;10259647;28;84228;-57
2022/05/09 03:19:45;;;;;;;;;;;9.30;1.00;;;;;;10277878;28;84859;-55
2022/05/09 03:24:45;;;;;;;;;;;9.20;1.00;;;;;;10217272;28;86421;-55
2022/05/09 03:29:46;;;;;;;;;;;9.20;1.00;;;;;;10248684;28;84216;-50
2022/05/09 03:34:46;;;;;;;;;;;9.10;1.00;;;;;;10272515;28;84465;-56
2022/05/09 03:39:47;;;;;;;;;;;9.10;1.00;;;;;;10289178;28;84036;-58
2022/05/09 03:44:47;;;;;;;;;;;9.10;1.00;;;;;;10289594;28;84930;-55
2022/05/09 03:49:48;;;;;;;;;;;9.10;1.00;;;;;;10273443;28;84950;-56
2022/05/09 03:54:49;;;;;;;;;;;9.00;1.00;;;;;;10271884;22;84339;-52
2022/05/09 03:59:52;;;;;;;;;;;9.00;1.00;;;;;;10207098;28;85012;-56
2022/05/09 04:04:54;;;;;;;;;;;9.00;1.00;;;;;;10209008;28;84735;-55
2022/05/09 04:09:56;;;;;;;;;;;9.00;1.00;;;;;;10208387;28;84082;-55
2022/05/09 04:20:15;;;;;;;;;;;9.00;1.00;;;;;;10207588;28;85026;-56
2022/05/09 04:25:16;;;;;;;;;;;9.00;1.00;;;;;;10202026;28;84801;-55
2022/05/09 04:30:17;;;;;;;;;;;9.00;1.00;;;;;;10218505;28;84216;-56
2022/05/09 04:35:19;;;;;;;;;;;9.00;1.00;;;;;;10226140;28;84925;-56
2022/05/09 04:40:22;;;;;;;;;;;9.00;1.00;;;;;;10223369;28;84820;-58
2022/05/09 04:45:23;;;;;;;;;;;9.10;1.00;;;;;;10223430;28;84928;-55
2022/05/09 04:50:24;;;;;;;;;;;9.20;1.00;;;;;;10225949;28;84878;-55
2022/05/09 04:55:25;;;;;;;;;;;9.30;1.00;;;;;;10219665;28;84370;-53
2022/05/09 05:00:26;;;;;;;;;;;9.40;1.00;;;;;;10223732;28;85890;-54
2022/05/09 05:05:27;;;;;;;;;;;9.50;1.00;;;;;;10223234;28;84276;-57
2022/05/09 05:10:28;;;;;;;;;;;9.60;1.00;;;;;;10223178;28;84879;-57
2022/05/09 05:15:29;;;;;;;;;;;9.70;1.00;;;;;;10223731;28;84308;-56
2022/05/09 05:20:30;;;;;;;;;;;9.90;1.00;;;;;;10210514;28;84850;-54
2022/05/09 05:25:30;;;;;;;;;;;9.90;1.00;;;;;;10204718;28;84982;-57
2022/05/09 05:30:32;;;;;;;;;;;10.10;1.00;;;;;;10208856;28;84118;-50
2022/05/09 05:35:33;;;;;;;;;;;10.30;1.00;;;;;;10218222;28;84312;-57
2022/05/09 05:40:33;;;;;;;;;;;10.50;1.00;;;;;;10223716;28;84768;-55
2022/05/09 05:45:34;;;;;;;;;;;10.70;1.00;;;;;;10222647;28;84153;-55
2022/05/09 05:50:34;;;;;;;;;;;10.90;1.00;;;;;;10221696;28;90446;-57
2022/05/09 05:55:36;;;;;;;;;;;11.00;1.00;;;;;;10222860;28;84958;-55
2022/05/09 06:00:36;;;;;;;;;;;11.20;1.00;;;;;;10219878;28;84234;-55
2022/05/09 06:05:37;;;;;;;;;;;11.40;1.00;;;;;;10198204;28;84180;-57
2022/05/09 06:10:37;;;;;;;;;;;11.70;1.00;;;;;;10210876;28;84384;-56
2022/05/09 06:15:38;;;;;;;;;;;11.90;1.00;;;;;;10235201;28;85017;-57
2022/05/09 06:20:39;;;;;;;;;;;12.10;1.00;;;;;;10216401;28;84923;-56
2022/05/09 06:25:43;;;;;;;;;;;12.30;1.00;;;;;;10218340;28;84757;-57
2022/05/09 06:30:44;;;;;;;;;;;12.70;1.00;;;;;;10220652;28;84834;-59
2022/05/09 06:35:45;;;;;;;;;;;12.80;99.90;;;;;;10223619;28;84368;-57
2022/05/09 06:40:45;;;;;;;;;;;13.00;99.90;;;;;;10220909;28;84927;-55
2022/05/09 06:45:46;;;;;;;;;;;13.20;99.90;;;;;;10224643;28;84897;-55
2022/05/09 06:50:47;;;;;;;;;;;13.50;99.90;;;;;;10228017;28;85068;-57
2022/05/09 06:55:48;;;;;;;;;;;13.90;99.90;;;;;;10207256;28;84740;-59
2022/05/09 07:00:49;;;;;;;;;;;14.20;66.80;;;;;;10228373;28;85196;-55
2022/05/09 07:05:51;;;;;;;;;;;14.70;1.00;;;;;;10225583;28;84948;-56
2022/05/09 07:10:52;;;;;;;;;;;14.90;1.00;;;;;;10209764;28;85441;-56
2022/05/09 07:15:57;;;;;;;;;;;15.70;1.00;;;;;;10217187;28;84062;-61
2022/05/09 07:20:58;;;;;;;;;;;16.40;36.50;;;;;;10247545;28;86289;-54
2022/05/09 07:26:00;;;;;;;;;;;16.80;1.00;;;;;;10249677;28;84155;-54
2022/05/09 07:31:00;;;;;;;;;;;17.30;94.90;;;;;;10211376;28;84087;-53
2022/05/09 07:36:01;;;;;;;;;;;18.10;1.00;;;;;;10237783;28;84962;-53
2022/05/09 07:41:02;;;;;;;;;;;18.40;1.00;;;;;;10231646;28;84227;-53
2022/05/09 07:46:02;;;;;;;;;;;18.80;1.00;;;;;;10209094;28;84820;-50
2022/05/09 07:51:05;;;;;;;;;;;19.60;99.90;;;;;;10208207;28;84541;-56
2022/05/09 07:56:06;;;;;;;;;;;20.10;1.00;;;;;;10216122;28;84921;-54
2022/05/09 08:01:07;;;;;;;;;;;20.00;1.00;;;;;;10224488;28;84929;-56
2022/05/09 08:06:07;;;;;;;;;;;20.60;1.00;;;;;;10226848;28;84116;-58
2022/05/09 08:11:08;;;;;;;;;;;21.20;99.90;;;;;;10226778;28;84116;-55
2022/05/09 08:16:08;;;;;;;;;;;21.70;1.00;;;;;;10236742;28;85072;-56
2022/05/09 08:21:10;;;;;;;;;;;21.90;1.00;;;;;;10218157;28;84767;-56
2022/05/09 08:26:11;;;;;;;;;;;22.40;1.40;;;;;;10205475;28;85013;-57
2022/05/09 08:31:16;;;;;;;;;;;23.20;1.00;;;;;;10206841;28;84047;-58
2022/05/09 08:41:51;;;;;;;;;;;23.30;99.90;;;;;;10207707;28;84815;-57
2022/05/09 08:47:07;;;;;;;;;;;23.50;1.00;;;;;;10206952;28;84801;-58
2022/05/09 08:52:26;;;;;;;;;;;23.70;1.00;;;;;;10205740;28;85298;-58
2022/05/09 08:57:29;;;;;;;;;;;24.10;1.00;;;;;;10241751;28;84915;-58
2022/05/09 09:02:34;;;;;;;;;;;24.70;1.00;;;;;;10246054;28;84116;-58
2022/05/09 09:07:48;;;;;;;;;;;24.80;1.00;;;;;;10245035;28;84942;-51
2022/05/09 09:13:07;;;;;;;;;;;25.40;99.90;;;;;;10244185;28;85388;-58
2022/05/09 09:18:18;;;;;;;;;;;26.00;99.90;;;;;;10244396;28;84781;-58
2022/05/09 09:23:37;;;;;;;;;;;26.90;1.00;;;;;;10209401;28;84022;-57
2022/05/09 09:28:49;;;;;;;;;;;26.70;1.00;;;;;;10205236;28;84202;-58
2022/05/09 09:33:54;;;;;;;;;;;26.80;1.00;;;;;;10215319;28;85202;-57
2022/05/09 09:38:57;;;;;;;;;;;27.40;1.00;;;;;;10244783;28;84110;-57
2022/05/09 09:44:04;;;;;;;;;;;27.80;1.00;;;;;;10245152;28;84247;-59
2022/05/09 09:49:09;;;;;;;;;;;28.00;1.00;;;;;;10243155;28;84560;-58
2022/05/09 09:54:10;;;;;;;;;;;28.40;1.00;;;;;;10244466;28;84778;-58
2022/05/09 09:59:10;;;;;;;;;;;28.60;1.00;;;;;;10242047;22;85965;-62
2022/05/09 10:04:13;;;;;;;;;;;28.90;1.00;;;;;;10205852;28;84757;-62
2022/05/09 10:09:19;;;;;;;;;;;29.40;99.90;;;;;;10245307;28;84251;-60
2022/05/09 10:14:33;;;;;;;;;;;29.80;99.90;;;;;;10243918;28;86820;-63
2022/05/09 10:19:34;;;;;;;;;;;29.60;1.00;;;;;;10248265;28;84120;-61
2022/05/09 10:24:51;;;;;;;;;;;29.70;1.00;;;;;;10222075;28;84952;-61
2022/05/09 10:29:55;;;;;;;;;;;30.20;99.90;;;;;;10212919;28;84922;-60
2022/05/09 10:35:00;;;;;;;;;;;30.00;99.90;;;;;;10213078;28;86079;-60
2022/05/09 10:40:04;;;;;;;;;;;30.30;99.90;;;;;;10212762;28;83982;-59
2022/05/09 10:45:12;;;;;;;;;;;30.00;99.90;;;;;;10212916;28;84954;-61
2022/05/09 10:50:19;;;;;;;;;;;30.40;99.90;;;;;;10212463;28;85122;-61
2022/05/09 10:55:24;;;;;;;;;;;30.80;99.90;;;;;;10214423;28;84312;-61
2022/05/09 11:00:25;;;;;;;;;;;31.70;99.90;;;;;;10213332;28;84394;-61
2022/05/09 11:05:30;;;;;;;;;;;31.90;1.00;;;;;;10214045;28;84108;-61
2022/05/09 11:10:31;;;;;;;;;;;32.00;1.00;;;;;;10238127;28;84169;-61
2022/05/09 11:15:51;;;;;;;;;;;32.10;1.00;;;;;;10248255;28;85194;-60
2022/05/09 11:20:58;;;;;;;;;;;32.20;1.00;;;;;;10217722;28;84764;-62
2022/05/09 11:26:07;;;;;;;;;;;31.70;1.00;;;;;;10250652;28;84659;-60
2022/05/09 11:31:20;;;;;;;;;;;31.60;1.00;;;;;;10243604;28;85205;-60
2022/05/09 11:36:39;;;;;;;;;;;32.50;1.00;;;;;;10213481;28;86076;-59
2022/05/09 11:41:40;;;;;;;;;;;32.10;1.00;;;;;;10208000;28;84936;-59
2022/05/09 11:46:43;;;;;;;;;;;31.60;1.00;;;;;;10213593;28;84223;-58
2022/05/09 11:51:46;;;;;;;;;;;31.40;1.00;;;;;;10208409;28;84123;-58
2022/05/09 11:56:49;;;;;;;;;;;31.80;1.00;;;;;;10209929;28;84167;-61
2022/05/09 12:01:57;;;;;;;;;;;31.90;1.00;;;;;;10191488;28;87033;-60
2022/05/09 12:06:58;;;;;;;;;;;32.30;1.00;;;;;;10206891;28;84908;-61
2022/05/09 12:11:58;;;;;;;;;;;31.70;1.00;;;;;;10207484;28;84366;-59
2022/05/09 12:16:59;;;;;;;;;;;31.40;1.00;;;;;;10205806;28;84894;-62
2022/05/09 12:22:33;;;;;;;;;;;30.30;1.00;;;;;;10207893;28;84567;-60
2022/05/09 12:27:43;;;;;;;;;;;29.30;1.00;;;;;;10205314;28;85372;-60
2022/05/09 12:32:47;;;;;;;;;;;29.60;1.00;;;;;;10207292;28;85006;-60
2022/05/09 12:37:47;;;;;;;;;;;30.40;1.00;;;;;;10206673;28;84004;-61
2022/05/09 12:42:49;;;;;;;;;;;31.30;1.00;;;;;;10209211;28;84791;-61
2022/05/09 12:47:50;;;;;;;;;;;32.30;1.00;;;;;;10204860;28;84862;-59
2022/05/09 12:52:53;;;;;;;;;;;31.90;1.00;;;;;;10207010;28;84775;-60
2022/05/09 12:57:54;;;;;;;;;;;32.50;1.00;;;;;;10207029;28;84958;-61
2022/05/09 13:02:54;;;;;;;;;;;32.80;1.00;;;;;;10205664;28;84967;-59
2022/05/09 13:07:56;;;;;;;;;;;33.20;1.00;;;;;;10204777;28;84210;-53
2022/05/09 13:13:05;;;;;;;;;;;33.20;1.00;;;;;;10207667;28;84971;-60
2022/05/09 13:18:06;;;;;;;;;;;32.90;1.00;;;;;;10207152;28;84194;-59
2022/05/09 13:23:09;;;;;;;;;;;32.90;1.00;;;;;;10237806;28;84763;-61
2022/05/09 13:28:11;;;;;;;;;;;32.30;1.00;;;;;;10247175;28;85340;-60
2022/05/09 13:33:15;;;;;;;;;;;32.90;1.00;;;;;;10244735;28;85036;-60
2022/05/09 13:38:17;;;;;;;;;;;33.30;1.00;;;;;;10205390;28;84187;-63
2022/05/09 13:43:23;;;;;;;;;;;32.80;1.00;;;;;;10206261;28;84270;-60
2022/05/09 13:48:24;;;;;;;;;;;31.70;1.00;;;;;;10205664;28;84169;-61
2022/05/09 13:53:30;;;;;;;;;;;31.40;1.00;;;;;;10207591;28;84537;-61
2022/05/09 13:58:32;;;;;;;;;;;31.40;1.00;;;;;;10210229;28;85812;-59
2022/05/09 14:03:36;;;;;;;;;;;31.20;1.00;;;;;;10211793;28;84905;-59
2022/05/09 14:08:37;;;;;;;;;;;30.90;1.00;;;;;;10212815;28;84804;-58
2022/05/09 14:13:46;;;;;;;;;;;30.70;1.00;;;;;;10211403;28;84142;-52
2022/05/09 14:18:50;;;;;;;;;;;30.40;1.00;;;;;;10210176;28;86119;-58
2022/05/09 14:23:59;;;;;;;;;;;30.30;1.00;;;;;;10210997;28;84909;-59
2022/05/09 14:34:22;;;;;;;;;;;28.40;1.00;;;;;;10213387;28;84116;-58
2022/05/09 14:39:28;;;;;;;;;;;27.50;1.00;;;;;;10227172;28;85801;-61
2022/05/09 14:44:33;;;;;;;;;;;26.90;1.00;;;;;;10252482;28;84806;-59
2022/05/09 14:49:45;;;;;;;;;;;26.60;1.00;;;;;;10247692;28;84217;-60
2022/05/09 14:54:50;;;;;;;;;;;26.60;1.00;;;;;;10211845;28;84954;-60
2022/05/09 14:59:51;;;;;;;;;;;26.50;1.00;;;;;;10212487;28;84997;-59
2022/05/09 15:04:53;;;;;;;;;;;26.40;1.00;;;;;;10206355;28;85430;-62
2022/05/09 15:09:56;;;;;;;;;;;26.20;1.00;;;;;;10211478;28;84780;-60
2022/05/09 15:14:56;;;;;;;;;;;26.20;1.00;;;;;;10219853;28;87363;-59
2022/05/09 15:19:57;;;;;;;;;;;26.20;1.00;;;;;;10239884;28;84623;-59
2022/05/09 15:24:58;;;;;;;;;;;25.90;1.00;;;;;;10246223;28;84099;-61
2022/05/09 15:29:58;;;;;;;;;;;25.90;1.00;;;;;;10221270;28;84291;-57
2022/05/09 15:34:59;;;;;;;;;;;25.80;1.00;;;;;;10211108;28;84979;-61
2022/05/09 15:40:00;;;;;;;;;;;25.70;1.00;;;;;;10208203;28;84915;-59
2022/05/09 15:45:03;;;;;;;;;;;25.70;1.00;;;;;;10207310;28;87487;-61
2022/05/09 15:50:04;;;;;;;;;;;25.40;1.00;;;;;;10211052;28;84142;-59
2022/05/09 15:55:05;;;;;;;;;;;25.50;1.00;;;;;;10207641;28;84109;-58
2022/05/09 16:00:07;;;;;;;;;;;25.60;1.00;;;;;;10290687;22;84127;-56
2022/05/09 16:05:08;;;;;;;;;;;25.40;1.00;;;;;;10287317;28;84942;-55
2022/05/09 16:15:30;;;;;;;;;;;25.30;1.00;;;;;;10284537;28;87419;-57
2022/05/09 16:20:31;;;;;;;;;;;25.40;1.00;;;;;;10286980;28;84146;-58
2022/05/09 16:25:32;;;;;;;;;;;25.20;1.00;;;;;;10285361;28;84460;-57
2022/05/09 16:30:35;;;;;;;;;;;25.10;1.00;;;;;;10285482;28;84067;-57
2022/05/09 16:35:35;;;;;;;;;;;25.00;1.00;;;;;;10285248;28;84146;-57
2022/05/09 16:40:39;;;;;;;;;;;24.90;1.00;;;;;;10284045;28;84219;-57
2022/05/09 16:45:40;;;;;;;;;;;24.80;1.00;;;;;;10283695;28;84912;-57
2022/05/09 16:50:46;;;;;;;;;;;24.80;1.00;;;;;;10265880;28;86772;-58
2022/05/09 16:55:50;;;;;;;;;;;24.60;1.00;;;;;;10283256;28;84421;-59
2022/05/09 17:00:51;;;;;;;;;;;24.50;1.00;;;;;;10285018;28;84124;-55
2022/05/09 17:05:52;;;;;;;;;;;24.30;1.00;;;;;;10283602;28;84570;-58
2022/05/09 17:10:54;;;;;;;;;;;24.40;1.00;;;;;;10290864;28;85071;-57
2022/05/09 17:15:55;;;;;;;;;;;24.30;1.00;;;;;;10284475;28;84863;-60
2022/05/09 17:20:56;;;;;;;;;;;24.20;1.00;;;;;;10265044;28;86005;-57
2022/05/09 17:26:00;;;;;;;;;;;24.20;1.00;;;;;;10284471;28;84141;-59
2022/05/09 17:31:01;;;;;;;;;;;24.20;1.00;;;;;;10287642;28;85032;-60
2022/05/09 17:41:22;;;;;;;;;;;24.00;1.00;;;;;;10284483;28;84112;-60
2022/05/09 17:46:28;;;;;;;;;;;23.90;1.00;;;;;;10284428;28;84111;-59
2022/05/09 17:51:29;;;;;;;;;;;23.60;1.00;;;;;;10264759;28;85024;-57
2022/05/09 17:56:30;;;;;;;;;;;23.50;1.00;;;;;;10283767;28;84482;-60
2022/05/09 18:01:34;;;;;;;;;;;23.40;1.00;;;;;;10267816;28;85245;-57
2022/05/09 18:06:35;;;;;;;;;;;23.40;78.90;;;;;;10262698;28;84315;-58
2022/05/09 18:11:39;;;;;;;;;;;23.20;99.90;;;;;;10252582;28;85069;-54
2022/05/09 18:16:40;;;;;;;;;;;23.10;99.90;;;;;;10264925;28;84243;-65
2022/05/09 18:21:40;;;;;;;;;;;22.90;1.00;;;;;;10273661;28;84734;-56
2022/05/09 18:26:41;;;;;;;;;;;22.80;1.00;;;;;;10245018;28;85072;-57
2022/05/09 18:31:49;;;;;;;;;;;22.80;99.90;;;;;;10262533;28;84907;-56
2022/05/09 18:36:56;;;;;;;;;;;22.70;1.00;;;;;;10263506;28;84518;-55
2022/05/09 18:41:59;;;;;;;;;;;22.50;1.00;;;;;;10248048;28;86864;-56
2022/05/09 18:46:59;;;;;;;;;;;22.30;99.90;;;;;;10267316;28;84291;-57
2022/05/09 18:57:19;;;;;;;;;;;22.10;1.00;;;;;;10284737;28;84751;-58
2022/05/09 19:02:20;;;;;;;;;;;21.90;99.90;;;;;;10288801;28;84315;-58
2022/05/09 19:07:23;;;;;;;;;;;21.80;1.00;;;;;;10273273;28;85093;-58
2022/05/09 19:12:27;;;;;;;;;;;21.60;99.90;;;;;;10288743;28;84395;-59
2022/05/09 19:17:27;;;;;;;;;;;21.50;1.00;;;;;;10274130;28;84172;-57
2022/05/09 19:22:28;;;;;;;;;;;21.30;1.00;;;;;;10271566;28;84270;-56
2022/05/09 19:27:30;;;;;;;;;;;21.20;20.30;;;;;;10277813;28;84304;-58
2022/05/09 19:32:33;;;;;;;;;;;21.10;1.00;;;;;;10283539;28;84935;-57
2022/05/09 19:37:33;;;;;;;;;;;21.10;1.00;;;;;;10284713;28;84961;-57
2022/05/09 19:42:36;;;;;;;;;;;20.90;38.90;;;;;;10268953;28;84952;-58
2022/05/09 19:47:37;;;;;;;;;;;20.80;99.90;;;;;;10268416;28;84210;-57
2022/05/09 19:57:57;;;;;;;;;;;20.50;29.40;;;;;;10271677;28;85178;-58
2022/05/09 20:02:59;;;;;;;;;;;20.40;99.90;;;;;;10261198;28;84252;-57
2022/05/09 20:08:00;;;;;;;;;;;20.30;1.00;;;;;;10285996;28;84769;-57
2022/05/09 20:13:00;;;;;;;;;;;20.20;1.00;;;;;;10288291;28;84007;-58
2022/05/09 20:18:01;;;;;;;;;;;20.10;1.00;;;;;;10287849;28;84342;-58
2022/05/09 20:23:02;;;;;;;;;;;20.00;1.00;;;;;;10288429;28;84009;-58
2022/05/09 20:33:21;;;;;;;;;;;19.70;1.00;;;;;;10288017;28;84158;-55
2022/05/09 20:38:27;;;;;;;;;;;19.70;71.40;;;;;;10286333;28;84443;-55
2022/05/09 20:43:30;;;;;;;;;;;19.60;99.90;;;;;;10287357;28;86553;-57
2022/05/09 20:48:30;;;;;;;;;;;19.40;99.90;;;;;;10288041;28;84387;-57
2022/05/09 20:53:31;;;;;;;;;;;19.40;99.90;;;;;;10287378;28;84441;-56
2022/05/09 20:58:32;;;;;;;;;;;19.30;99.90;;;;;;10268976;28;85053;-58
2022/05/09 21:03:32;;;;;;;;;;;19.20;99.90;;;;;;10285435;28;84139;-57
2022/05/09 21:08:34;;;;;;;;;;;19.20;99.90;;;;;;10285909;28;84976;-57
2022/05/09 21:13:34;;;;;;;;;;;18.90;99.90;;;;;;10251898;28;84333;-56
2022/05/09 21:18:37;;;;;;;;;;;18.90;99.90;;;;;;10246880;28;84687;-55
2022/05/09 21:23:40;;;;;;;;;;;18.80;1.00;;;;;;10261350;28;84985;-56
2022/05/09 21:28:40;;;;;;;;;;;18.80;1.00;;;;;;10286709;28;84803;-56
2022/05/09 21:33:41;;;;;;;;;;;18.70;1.00;;;;;;10286329;28;85200;-55
2022/05/09 21:44:03;;;;;;;;;;;18.40;1.00;;;;;;10286080;28;84741;-57
2022/05/09 21:49:03;;;;;;;;;;;18.30;1.00;;;;;;10285504;28;84316;-57
2022/05/09 21:54:04;;;;;;;;;;;18.10;1.00;;;;;;10285629;28;84984;-56
2022/05/09 21:59:06;;;;;;;;;;;18.10;1.00;;;;;;10282670;22;84780;-54
2022/05/09 22:04:07;;;;;;;;;;;18.00;1.00;;;;;;10246174;28;84985;-47
2022/05/09 22:09:12;;;;;;;;;;;18.00;1.00;;;;;;10245846;28;84182;-51
2022/05/09 22:14:13;;;;;;;;;;;18.00;1.00;;;;;;10272971;28;84291;-51
2022/05/09 22:19:14;;;;;;;;;;;18.00;1.00;;;;;;10293571;28;84272;-48
2022/05/09 22:24:15;;;;;;;;;;;18.00;1.00;;;;;;10292794;28;84940;-50
2022/05/09 22:29:29;;;;;;;;;;;17.80;1.00;;;;;;10273492;28;85425;-48
2022/05/09 22:34:32;;;;;;;;;;;17.70;1.00;;;;;;10251957;28;84260;-52
2022/05/09 22:39:37;;;;;;;;;;;17.70;1.00;;;;;;10252182;28;85449;-47
2022/05/09 22:44:39;;;;;;;;;;;17.60;1.00;;;;;;10264233;28;84944;-50
2022/05/09 22:49:41;;;;;;;;;;;17.70;1.00;;;;;;10291794;28;84083;-51
2022/05/09 22:54:43;;;;;;;;;;;17.70;1.00;;;;;;10274849;28;84752;-51
2022/05/09 22:59:44;;;;;;;;;;;17.60;1.00;;;;;;10272194;28;85131;-48
2022/05/09 23:04:45;;;;;;;;;;;17.60;1.00;;;;;;10291499;28;84895;-47
2022/05/09 23:09:45;;;;;;;;;;;17.50;1.00;;;;;;10288319;28;84879;-52
2022/05/09 23:14:47;;;;;;;;;;;17.40;1.00;;;;;;10289284;28;84999;-48
2022/05/09 23:19:48;;;;;;;;;;;17.40;1.00;;;;;;10251892;28;84859;-47
2022/05/09 23:24:48;;;;;;;;;;;17.30;1.00;;;;;;10290978;28;84968;-44
2022/05/09 23:29:49;;;;;;;;;;;17.20;1.00;;;;;;10271751;28;86361;-48
2022/05/09 23:34:50;;;;;;;;;;;17.10;1.00;;;;;;10278693;28;84865;-52
2022/05/09 23:39:51;;;;;;;;;;;17.00;1.00;;;;;;10249826;28;85596;-54
2022/05/09 23:44:56;;;;;;;;;;;16.90;1.00;;;;;;10250981;28;84581;-49
2022/05/09 23:49:57;;;;;;;;;;;16.80;1.00;;;;;;10250711;28;84940;-50
2022/05/09 23:55:01;;;;;;;;;;;16.80;1.00;;;;;;10232357;28;84667;-52
